createdAt,value
2023-05-13T00:00:48.370Z,2.83
2023-05-13T00:05:00.054Z,2.58
2023-05-13T00:09:11.748Z,3.10
2023-05-13T00:13:23.444Z,2.90
2023-05-13T00:17:35.224Z,2.83
2023-05-13T00:21:50.059Z,2.55
2023-05-13T00:26:01.841Z,2.42
2023-05-13T00:30:13.570Z,2.92
2023-05-13T00:34:25.140Z,2.70
2023-05-13T00:38:37.203Z,2.90
2023-05-13T00:42:49.536Z,2.90
2023-05-13T00:47:01.193Z,2.88
2023-05-13T00:51:12.922Z,2.60
2023-05-13T00:55:24.719Z,3.20
2023-05-13T00:59:36.368Z,2.88
2023-05-13T01:04:36.661Z,2.67
2023-05-13T01:09:03.481Z,3.47
2023-05-13T01:13:23.746Z,3.28
2023-05-13T01:18:13.734Z,3.17
2023-05-13T01:22:25.970Z,3.22
2023-05-13T01:26:37.661Z,2.60
2023-05-13T01:30:49.647Z,3.03
2023-05-13T01:35:02.844Z,3.10
2023-05-13T01:39:17.849Z,3.35
2023-05-13T01:43:30.375Z,2.90
2023-05-13T01:47:42.218Z,3.10
2023-05-13T01:51:54.362Z,2.90
2023-05-13T01:56:10.467Z,2.80
2023-05-13T02:00:22.861Z,3.33
2023-05-13T02:04:34.749Z,3.35
2023-05-13T02:08:47.149Z,3.42
2023-05-13T02:12:58.860Z,3.28
2023-05-13T02:17:10.577Z,3.38
2023-05-13T02:21:22.285Z,3.17
2023-05-13T02:25:34.348Z,2.95
2023-05-13T02:29:46.158Z,3.40
2023-05-13T02:33:57.925Z,3.47
2023-05-13T02:38:10.742Z,3.70
2023-05-13T02:42:22.659Z,3.65
2023-05-13T02:46:34.565Z,3.40
2023-05-13T02:50:46.403Z,3.72
2023-05-13T02:54:58.217Z,3.40
2023-05-13T02:59:10.082Z,3.75
2023-05-13T03:03:22.079Z,3.95
2023-05-13T03:07:34.371Z,3.67
2023-05-13T03:11:46.146Z,3.60
2023-05-13T03:15:57.933Z,3.67
2023-05-13T03:20:10.534Z,4.40
2023-05-13T03:24:22.391Z,3.55
2023-05-13T03:28:34.446Z,3.80
2023-05-13T03:32:46.867Z,4.22
2023-05-13T03:36:59.133Z,3.92
2023-05-13T03:41:12.776Z,4.20
2023-05-13T03:45:24.656Z,4.80
2023-05-13T03:49:39.951Z,4.97
2023-05-13T03:53:52.009Z,4.90
2023-05-13T03:58:17.100Z,4.60
2023-05-13T04:02:29.514Z,4.80
2023-05-13T04:06:41.266Z,4.75
2023-05-13T04:10:54.514Z,5.20
2023-05-13T04:15:06.563Z,5.00
2023-05-13T04:19:18.128Z,5.22
2023-05-13T04:23:29.779Z,5.07
2023-05-13T04:27:41.850Z,5.03
2023-05-13T04:32:01.839Z,5.30
2023-05-13T04:36:15.091Z,4.82
2023-05-13T04:40:27.876Z,4.93
2023-05-13T04:44:43.382Z,5.40
2023-05-13T04:48:55.335Z,5.68
2023-05-13T04:53:07.293Z,4.68
2023-05-13T04:57:19.021Z,5.07
2023-05-13T05:01:31.299Z,5.35
2023-05-13T05:05:43.176Z,5.30
2023-05-13T05:09:56.388Z,5.40
2023-05-13T05:14:09.292Z,4.85
2023-05-13T05:18:21.562Z,5.03
2023-05-13T05:22:36.213Z,4.60
2023-05-13T05:26:48.120Z,4.32
2023-05-13T05:31:01.966Z,4.53
2023-05-13T05:35:17.033Z,4.60
2023-05-13T05:39:28.835Z,4.00
2023-05-13T05:43:40.576Z,4.30
2023-05-13T05:47:55.185Z,4.47
2023-05-13T05:52:07.218Z,4.22
2023-05-13T05:56:19.799Z,3.72
2023-05-13T06:00:32.214Z,4.00
2023-05-13T06:04:44.258Z,4.30
2023-05-13T06:08:56.102Z,4.25
2023-05-13T06:13:07.828Z,4.90
2023-05-13T06:17:19.557Z,3.75
2023-05-13T06:21:32.103Z,4.13
2023-05-13T06:25:43.746Z,3.75
2023-05-13T06:29:55.579Z,4.00
2023-05-13T06:34:07.376Z,3.70
2023-05-13T06:38:19.120Z,3.50
2023-05-13T06:42:32.768Z,3.63
2023-05-13T06:46:46.558Z,3.67
2023-05-13T06:50:58.249Z,3.58
2023-05-13T06:55:10.590Z,3.28
2023-05-13T06:59:22.890Z,3.47
2023-05-13T07:03:34.581Z,3.78
2023-05-13T07:07:46.315Z,3.45
2023-05-13T07:11:57.895Z,3.53
2023-05-13T07:16:09.522Z,3.42
2023-05-13T07:20:22.786Z,3.65
2023-05-13T07:24:34.631Z,3.47
2023-05-13T07:28:46.272Z,3.80
2023-05-13T07:32:57.962Z,3.42
2023-05-13T07:37:09.614Z,3.28
2023-05-13T07:41:21.593Z,2.83
2023-05-13T07:45:33.255Z,2.60
2023-05-13T07:49:44.858Z,3.03
2023-05-13T07:53:57.066Z,2.97
2023-05-13T07:58:08.641Z,2.97
2023-05-13T08:02:20.376Z,2.78
2023-05-13T08:06:32.795Z,3.10
2023-05-13T08:10:44.720Z,2.97
2023-05-13T08:14:56.371Z,2.90
2023-05-13T08:19:08.105Z,2.42
2023-05-13T08:23:19.970Z,2.92
2023-05-13T08:27:31.650Z,2.70
2023-05-13T08:31:43.355Z,2.75
2023-05-13T08:35:54.900Z,2.60
2023-05-13T08:40:07.326Z,2.53
2023-05-13T08:44:22.711Z,2.53
2023-05-13T08:48:34.947Z,2.50
2023-05-13T08:52:55.762Z,2.40
2023-05-13T08:57:07.495Z,2.22
2023-05-13T09:01:19.313Z,2.65
2023-05-13T09:05:31.999Z,2.30
2023-05-13T09:09:44.652Z,2.38
2023-05-13T09:13:58.287Z,2.30
2023-05-13T09:18:10.066Z,2.40
2023-05-13T09:22:22.804Z,2.17
2023-05-13T09:26:34.512Z,2.13
2023-05-13T09:30:54.760Z,2.72
2023-05-13T09:35:19.197Z,2.28
2023-05-13T09:39:39.373Z,2.58
2023-05-13T09:43:51.120Z,2.35
2023-05-13T09:48:04.378Z,2.28
2023-05-13T09:52:17.133Z,2.10
2023-05-13T09:56:30.925Z,2.63
2023-05-13T10:00:43.954Z,2.42
2023-05-13T10:04:56.913Z,2.40
2023-05-13T10:09:10.041Z,2.08
2023-05-13T10:13:24.224Z,2.28
2023-05-13T10:17:36.566Z,2.05
2023-05-13T10:21:50.458Z,2.15
2023-05-13T10:26:02.922Z,2.72
2023-05-13T10:30:16.202Z,2.42
2023-05-13T10:34:59.100Z,2.28
2023-05-13T10:39:27.430Z,2.20
2023-05-13T10:43:39.311Z,2.30
2023-05-13T10:47:51.706Z,2.35
2023-05-13T10:52:14.349Z,2.38
2023-05-13T10:56:28.324Z,2.40
2023-05-13T11:00:42.704Z,2.05
2023-05-13T11:04:58.745Z,1.90
2023-05-13T11:09:20.359Z,2.00
2023-05-13T11:13:38.239Z,2.25
2023-05-13T11:17:53.400Z,2.40
2023-05-13T11:22:05.102Z,2.60
2023-05-13T11:26:17.167Z,2.35
2023-05-13T11:30:29.002Z,2.42
2023-05-13T11:34:50.781Z,2.38
2023-05-13T11:39:07.139Z,2.35
2023-05-13T11:43:21.735Z,2.45
2023-05-13T11:47:33.340Z,2.38
2023-05-13T11:51:44.930Z,2.47
2023-05-13T11:55:57.358Z,2.30
2023-05-13T12:00:10.388Z,2.28
2023-05-13T12:04:28.299Z,2.00
2023-05-13T12:08:44.548Z,2.47
2023-05-13T12:12:56.887Z,2.85
2023-05-13T12:17:08.512Z,2.38
2023-05-13T12:21:21.284Z,2.30
2023-05-13T12:25:47.580Z,2.25
2023-05-13T12:29:59.109Z,2.45
2023-05-13T12:34:10.728Z,2.40
2023-05-13T12:38:24.571Z,2.45
2023-05-13T12:42:36.404Z,2.30
2023-05-13T12:46:55.670Z,2.40
2023-05-13T12:51:07.683Z,2.40
2023-05-13T12:55:19.611Z,1.80
2023-05-13T12:59:31.390Z,1.98
2023-05-13T13:03:43.500Z,2.45
2023-05-13T13:07:55.272Z,2.25
2023-05-13T13:12:07.205Z,1.90
2023-05-13T13:16:19.051Z,2.08
2023-05-13T13:20:30.653Z,1.83
2023-05-13T13:24:42.288Z,2.10
2023-05-13T13:28:53.962Z,1.90
2023-05-13T13:33:05.634Z,2.10
2023-05-13T13:37:17.260Z,2.00
2023-05-13T13:41:28.803Z,2.05
2023-05-13T13:45:40.537Z,1.77
2023-05-13T13:49:52.277Z,2.33
2023-05-13T13:54:05.228Z,2.17
2023-05-13T13:58:16.766Z,2.00
2023-05-13T14:02:28.535Z,2.10
2023-05-13T14:06:40.687Z,2.33
2023-05-13T14:10:52.454Z,2.40
2023-05-13T14:15:04.453Z,2.38
2023-05-13T14:19:18.056Z,2.45
2023-05-13T14:23:29.859Z,2.42
2023-05-13T14:27:41.468Z,2.40
2023-05-13T14:31:53.298Z,2.38
2023-05-13T14:36:06.230Z,2.85
2023-05-13T14:40:17.772Z,2.20
2023-05-13T14:44:29.364Z,2.10
2023-05-13T14:48:41.250Z,2.10
2023-05-13T14:52:52.915Z,2.28
2023-05-13T14:57:05.977Z,2.50
2023-05-13T15:01:17.531Z,2.17
2023-05-13T15:05:29.140Z,2.38
2023-05-13T15:09:40.742Z,3.08
2023-05-13T15:13:54.477Z,2.22
2023-05-13T15:18:06.320Z,2.50
2023-05-13T15:22:18.204Z,2.28
2023-05-13T15:26:29.798Z,2.40
2023-05-13T15:30:42.642Z,2.50
2023-05-13T15:34:54.399Z,2.25
2023-05-13T15:39:06.860Z,2.33
2023-05-13T15:43:18.692Z,2.10
2023-05-13T15:47:30.451Z,2.13
2023-05-13T15:51:42.607Z,2.35
2023-05-13T15:55:55.467Z,2.15
2023-05-13T16:00:07.707Z,2.40
2023-05-13T16:04:19.342Z,2.28
2023-05-13T16:08:31.119Z,2.10
2023-05-13T16:12:43.031Z,2.10
2023-05-13T16:16:54.947Z,2.38
2023-05-13T16:21:09.365Z,2.30
2023-05-13T16:25:21.669Z,2.03
2023-05-13T16:29:34.743Z,2.35
2023-05-13T16:33:46.417Z,2.20
2023-05-13T16:37:58.059Z,2.08
2023-05-13T16:42:09.965Z,2.30
2023-05-13T16:46:21.585Z,2.28
2023-05-13T16:50:33.170Z,2.20
2023-05-13T16:54:44.801Z,1.90
2023-05-13T16:58:56.361Z,2.00
2023-05-13T17:03:08.018Z,2.00
2023-05-13T17:07:19.697Z,2.63
2023-05-13T17:16:35.329Z,2.55
2023-05-13T17:20:46.996Z,1.90
2023-05-13T17:24:58.689Z,2.20
2023-05-13T17:29:10.282Z,1.88
2023-05-13T17:33:23.106Z,2.33
2023-05-13T17:38:24.912Z,2.08
2023-05-13T17:42:36.914Z,2.50
2023-05-13T17:46:48.478Z,1.83
2023-05-13T17:51:00.175Z,2.17
2023-05-13T17:55:11.827Z,2.20
2023-05-13T17:59:23.542Z,2.28
2023-05-13T18:03:35.282Z,2.22
2023-05-13T18:07:47.381Z,1.80
2023-05-13T18:11:59.147Z,2.17
2023-05-13T18:16:11.635Z,1.88
2023-05-13T18:20:23.612Z,2.10
2023-05-13T18:24:36.003Z,2.38
2023-05-13T18:28:47.747Z,1.80
2023-05-13T18:32:59.675Z,1.63
2023-05-13T18:37:11.448Z,2.17
2023-05-13T18:41:23.161Z,2.13
2023-05-13T18:45:34.841Z,2.13
2023-05-13T18:49:46.574Z,2.13
2023-05-13T18:53:58.839Z,2.10
2023-05-13T18:58:10.658Z,2.13
2023-05-13T19:02:22.581Z,2.25
2023-05-13T19:06:38.079Z,2.50
2023-05-13T19:10:49.832Z,2.40
2023-05-13T19:15:01.608Z,2.08
2023-05-13T19:19:13.298Z,2.47
2023-05-13T19:23:25.072Z,2.20
2023-05-13T19:27:37.506Z,2.50
2023-05-13T19:31:50.446Z,2.40
2023-05-13T19:36:04.205Z,2.35
2023-05-13T19:40:16.359Z,2.47
2023-05-13T19:44:28.686Z,2.35
2023-05-13T19:48:43.522Z,2.95
2023-05-13T19:52:55.558Z,2.28
2023-05-13T19:57:07.724Z,2.42
2023-05-13T20:01:19.619Z,2.78
2023-05-13T20:05:31.443Z,2.70
2023-05-13T20:09:43.403Z,2.20
2023-05-13T20:13:55.712Z,2.83
2023-05-13T20:18:07.408Z,2.53
2023-05-13T20:22:44.341Z,2.67
2023-05-13T20:26:56.047Z,2.65
2023-05-13T20:31:07.713Z,2.50
2023-05-13T20:35:19.500Z,2.70
2023-05-13T20:39:31.506Z,2.63
2023-05-13T20:43:43.106Z,2.70
2023-05-13T20:47:59.252Z,2.45
2023-05-13T20:52:11.446Z,2.55
2023-05-13T20:56:23.135Z,2.97
2023-05-13T21:00:34.796Z,2.67
2023-05-13T21:04:46.516Z,2.75
2023-05-13T21:08:58.290Z,2.88
2023-05-13T21:13:10.548Z,3.05
2023-05-13T21:17:23.841Z,3.17
2023-05-13T21:21:35.437Z,3.10
2023-05-13T21:25:47.160Z,3.05
2023-05-13T21:29:58.847Z,2.88
2023-05-13T21:34:10.577Z,3.40
2023-05-13T21:38:22.431Z,3.22
2023-05-13T21:42:34.066Z,3.30
2023-05-13T21:46:45.820Z,3.30
2023-05-13T21:50:57.878Z,3.38
2023-05-13T21:55:09.913Z,3.28
2023-05-13T21:59:21.595Z,3.60
2023-05-13T22:03:33.237Z,3.47
2023-05-13T22:07:45.003Z,3.30
2023-05-13T22:11:56.764Z,3.78
2023-05-13T22:16:08.725Z,3.83
2023-05-13T22:20:20.949Z,3.60
2023-05-13T22:24:32.680Z,3.78
2023-05-13T22:28:46.408Z,4.15
2023-05-13T22:32:58.253Z,3.85
2023-05-13T22:37:10.083Z,4.22
2023-05-13T22:41:23.809Z,4.10
2023-05-13T22:45:36.947Z,4.07
2023-05-13T22:49:48.648Z,4.25
2023-05-13T22:54:00.249Z,4.38
2023-05-13T22:58:11.842Z,4.43
2023-05-13T23:02:24.236Z,4.68
2023-05-13T23:06:36.527Z,4.30
2023-05-13T23:10:48.098Z,4.75
2023-05-13T23:14:59.729Z,4.75
2023-05-13T23:19:11.448Z,4.82
2023-05-13T23:23:23.403Z,4.95
2023-05-13T23:27:35.353Z,5.22
2023-05-13T23:31:46.958Z,4.53
2023-05-13T23:35:58.535Z,5.25
2023-05-13T23:40:10.388Z,5.07
2023-05-13T23:44:21.942Z,5.00
2023-05-13T23:48:33.585Z,5.35
2023-05-13T23:52:45.119Z,5.22
2023-05-13T23:56:56.655Z,5.28
